EGPB

Sumburgh Airport

Lerwick, United Kingdom
METAR EGPB 211250Z 23004KT 9999 FEW023 07/03 Q1028 NOSIG
Observed Flight Rules
Feb-21 @ 12:50 UTC (26 minutes ago) Visual Flight Rules
Wind Visibility Clouds
230° at 4 knots 10,000+ meters
  • Few at 2,300' AGL
Temperatures Readings
Current 7°C / 45°F
Dewpoint 3°C / 37°F
Humidity 76%
Altimeter 30.35" Hg
Pressure 1028 hPa
Elevation 5
METAR EGPB 211250Z 23004KT 9999 FEW023 07/03 Q1028 NOSIG
Observed Flight Rules
Feb-21 @ 12:50 UTC
(26 minutes ago)
VFR
Wind Visibility
230° at 4 knots 10,000+ meters
Clouds
  • Few at 2,300' AGL
Temperature Dewpoint
7°C / 45°F 3°C / 37°F
Humidity Altimeter Pressure
76% 30.35" Hg 1028 hPa